Rothbury, United Kingdom
Current Conditions -  °F | °C
As of 3:50 AM on Saturday 22 Nov 2014 (Local Time) from EGQM Reporting Station
Moderate Rain Moderate Rain  
Wind Chill: 40°   Ceiling: 1800
Heat Index: 48°   Visibility: 4mi
Dew Point: 48°   Wind: 26mph
Humidity: 100%   Direction: 150°SSE
Pressure: 29.77"   Gusts: NA
Location:  55.31°N, 1.91°W
Report Text: EGQM 220350Z AUTO 15023KT 6000 RA FEW010/// BKN018/// 09/09 Q1008
Loading
Personal Weather Stations






























Interactive Weather Map New forecast layout! Learn more

10-Day Weather Forecast

Advertisements
Track Severe Weather on mobile